sensor_id;sensor_type;location;lat;lon;timestamp;pressure;altitude;pressure_sealevel;temperature;humidity
4326;BME280;58429;49.826;10.880;2023-01-26T00:00:01;99252;;;0.44;81.49
4326;BME280;58429;49.826;10.880;2023-01-26T00:01:06;99245;;;0.44;81.48
4326;BME280;58429;49.826;10.880;2023-01-26T00:02:01;99241;;;0.46;81.49
4326;BME280;58429;49.826;10.880;2023-01-26T00:03:01;99248;;;0.44;81.48
4326;BME280;58429;49.826;10.880;2023-01-26T00:04:01;99247;;;0.47;81.48
4326;BME280;58429;49.826;10.880;2023-01-26T00:05:01;99250;;;0.45;81.5
4326;BME280;58429;49.826;10.880;2023-01-26T00:06:02;99243;;;0.48;81.52
4326;BME280;58429;49.826;10.880;2023-01-26T00:07:01;99238;;;0.46;81.54
4326;BME280;58429;49.826;10.880;2023-01-26T00:08:01;99239;;;0.45;81.56
4326;BME280;58429;49.826;10.880;2023-01-26T00:09:01;99234;;;0.47;81.65
4326;BME280;58429;49.826;10.880;2023-01-26T00:10:01;99237;;;0.48;81.66
4326;BME280;58429;49.826;10.880;2023-01-26T00:11:02;99230;;;0.44;81.62
4326;BME280;58429;49.826;10.880;2023-01-26T00:12:01;99237;;;0.46;81.65
4326;BME280;58429;49.826;10.880;2023-01-26T00:13:01;99228;;;0.45;81.66
4326;BME280;58429;49.826;10.880;2023-01-26T00:14:01;99233;;;0.46;81.71
4326;BME280;58429;49.826;10.880;2023-01-26T00:15:01;99226;;;0.48;81.72
4326;BME280;58429;49.826;10.880;2023-01-26T00:16:01;99229;;;0.49;81.7
4326;BME280;58429;49.826;10.880;2023-01-26T00:17:01;99230;;;0.51;81.7
4326;BME280;58429;49.826;10.880;2023-01-26T00:18:01;99226;;;0.5;81.66
4326;BME280;58429;49.826;10.880;2023-01-26T00:19:01;99230;;;0.47;81.69
4326;BME280;58429;49.826;10.880;2023-01-26T00:20:01;99227;;;0.5;81.71
4326;BME280;58429;49.826;10.880;2023-01-26T00:21:01;99226;;;0.5;81.67
4326;BME280;58429;49.826;10.880;2023-01-26T00:22:01;99230;;;0.52;81.61
4326;BME280;58429;49.826;10.880;2023-01-26T00:23:01;99224;;;0.53;81.59
4326;BME280;58429;49.826;10.880;2023-01-26T00:24:01;99222;;;0.55;81.55
4326;BME280;58429;49.826;10.880;2023-01-26T00:25:01;99226;;;0.54;81.5
4326;BME280;58429;49.826;10.880;2023-01-26T00:26:01;99227;;;0.53;81.46
4326;BME280;58429;49.826;10.880;2023-01-26T00:27:01;99222;;;0.52;81.5
4326;BME280;58429;49.826;10.880;2023-01-26T00:28:01;99219;;;0.55;81.51
4326;BME280;58429;49.826;10.880;2023-01-26T00:29:01;99217;;;0.49;81.52
4326;BME280;58429;49.826;10.880;2023-01-26T00:30:02;99219;;;0.53;81.58
4326;BME280;58429;49.826;10.880;2023-01-26T00:31:01;99227;;;0.53;81.62
4326;BME280;58429;49.826;10.880;2023-01-26T00:32:01;99213;;;0.57;81.61
4326;BME280;58429;49.826;10.880;2023-01-26T00:33:01;99218;;;0.54;81.6
4326;BME280;58429;49.826;10.880;2023-01-26T00:34:01;99215;;;0.54;81.61
4326;BME280;58429;49.826;10.880;2023-01-26T00:35:01;99214;;;0.55;81.6
4326;BME280;58429;49.826;10.880;2023-01-26T00:36:01;99213;;;0.56;81.56
4326;BME280;58429;49.826;10.880;2023-01-26T00:37:01;99208;;;0.56;81.5
4326;BME280;58429;49.826;10.880;2023-01-26T00:38:01;99207;;;0.52;81.45
4326;BME280;58429;49.826;10.880;2023-01-26T00:39:01;99204;;;0.53;81.45
4326;BME280;58429;49.826;10.880;2023-01-26T00:40:01;99202;;;0.51;81.45
4326;BME280;58429;49.826;10.880;2023-01-26T00:41:01;99201;;;0.5;81.44
4326;BME280;58429;49.826;10.880;2023-01-26T00:42:01;99209;;;0.52;81.43
4326;BME280;58429;49.826;10.880;2023-01-26T00:43:01;99207;;;0.48;81.35
4326;BME280;58429;49.826;10.880;2023-01-26T00:44:01;99201;;;0.48;81.4
4326;BME280;58429;49.826;10.880;2023-01-26T00:45:01;99201;;;0.49;81.44
4326;BME280;58429;49.826;10.880;2023-01-26T00:46:01;99210;;;0.46;81.47
4326;BME280;58429;49.826;10.880;2023-01-26T00:47:01;99197;;;0.49;81.54
4326;BME280;58429;49.826;10.880;2023-01-26T00:48:01;99196;;;0.47;81.55
4326;BME280;58429;49.826;10.880;2023-01-26T00:49:01;99192;;;0.47;81.43
4326;BME280;58429;49.826;10.880;2023-01-26T00:50:01;99193;;;0.46;81.4
4326;BME280;58429;49.826;10.880;2023-01-26T00:51:01;99203;;;0.52;81.36
4326;BME280;58429;49.826;10.880;2023-01-26T00:52:01;99195;;;0.47;81.33
4326;BME280;58429;49.826;10.880;2023-01-26T00:53:01;99194;;;0.48;81.3
4326;BME280;58429;49.826;10.880;2023-01-26T00:54:01;99188;;;0.44;81.26
4326;BME280;58429;49.826;10.880;2023-01-26T00:55:01;99188;;;0.45;81.28
4326;BME280;58429;49.826;10.880;2023-01-26T00:56:01;99194;;;0.44;81.25
4326;BME280;58429;49.826;10.880;2023-01-26T00:57:01;99189;;;0.4;81.27
4326;BME280;58429;49.826;10.880;2023-01-26T00:58:02;99187;;;0.42;81.35
4326;BME280;58429;49.826;10.880;2023-01-26T00:59:01;99191;;;0.36;81.38
4326;BME280;58429;49.826;10.880;2023-01-26T01:00:01;99184;;;0.38;81.42
4326;BME280;58429;49.826;10.880;2023-01-26T01:01:01;99186;;;0.42;81.48
4326;BME280;58429;49.826;10.880;2023-01-26T01:02:01;99192;;;0.41;81.48
4326;BME280;58429;49.826;10.880;2023-01-26T01:03:01;99186;;;0.38;81.48
4326;BME280;58429;49.826;10.880;2023-01-26T01:04:01;99186;;;0.37;81.46
4326;BME280;58429;49.826;10.880;2023-01-26T01:05:01;99180;;;0.38;81.49
4326;BME280;58429;49.826;10.880;2023-01-26T01:06:01;99182;;;0.4;81.49
4326;BME280;58429;49.826;10.880;2023-01-26T01:07:01;99180;;;0.38;81.54
4326;BME280;58429;49.826;10.880;2023-01-26T01:08:01;99185;;;0.35;81.61
4326;BME280;58429;49.826;10.880;2023-01-26T01:09:01;99177;;;0.36;81.69
4326;BME280;58429;49.826;10.880;2023-01-26T01:10:01;99179;;;0.34;81.76
4326;BME280;58429;49.826;10.880;2023-01-26T01:11:02;99173;;;0.33;81.75
4326;BME280;58429;49.826;10.880;2023-01-26T01:12:01;99174;;;0.35;81.72
4326;BME280;58429;49.826;10.880;2023-01-26T01:13:01;99168;;;0.34;81.74
4326;BME280;58429;49.826;10.880;2023-01-26T01:14:01;99169;;;0.33;81.76
4326;BME280;58429;49.826;10.880;2023-01-26T01:15:01;99165;;;0.33;81.84
4326;BME280;58429;49.826;10.880;2023-01-26T01:16:03;99167;;;0.33;81.93
4326;BME280;58429;49.826;10.880;2023-01-26T01:17:01;99163;;;0.31;82.04
4326;BME280;58429;49.826;10.880;2023-01-26T01:18:01;99166;;;0.3;82.13
4326;BME280;58429;49.826;10.880;2023-01-26T01:19:01;99166;;;0.29;82.24
4326;BME280;58429;49.826;10.880;2023-01-26T01:20:01;99165;;;0.26;82.31
4326;BME280;58429;49.826;10.880;2023-01-26T01:21:04;99170;;;0.26;82.32
4326;BME280;58429;49.826;10.880;2023-01-26T01:22:01;99165;;;0.26;82.44
4326;BME280;58429;49.826;10.880;2023-01-26T01:23:01;99158;;;0.24;82.5
4326;BME280;58429;49.826;10.880;2023-01-26T01:24:01;99159;;;0.21;82.44
4326;BME280;58429;49.826;10.880;2023-01-26T01:25:01;99164;;;0.22;82.49
4326;BME280;58429;49.826;10.880;2023-01-26T01:26:01;99162;;;0.25;82.58
4326;BME280;58429;49.826;10.880;2023-01-26T01:27:01;99157;;;0.2;82.64
4326;BME280;58429;49.826;10.880;2023-01-26T01:28:01;99158;;;0.21;82.63
4326;BME280;58429;49.826;10.880;2023-01-26T01:29:01;99147;;;0.22;82.69
4326;BME280;58429;49.826;10.880;2023-01-26T01:30:01;99147;;;0.21;82.67
4326;BME280;58429;49.826;10.880;2023-01-26T01:31:02;99145;;;0.2;82.59
4326;BME280;58429;49.826;10.880;2023-01-26T01:32:01;99152;;;0.19;82.65
4326;BME280;58429;49.826;10.880;2023-01-26T01:33:01;99160;;;0.18;82.73
4326;BME280;58429;49.826;10.880;2023-01-26T01:34:01;99158;;;0.17;82.88
4326;BME280;58429;49.826;10.880;2023-01-26T01:35:01;99159;;;0.18;82.89
4326;BME280;58429;49.826;10.880;2023-01-26T01:36:02;99162;;;0.21;82.83
4326;BME280;58429;49.826;10.880;2023-01-26T01:37:01;99159;;;0.17;82.78
4326;BME280;58429;49.826;10.880;2023-01-26T01:38:01;99156;;;0.19;82.75
4326;BME280;58429;49.826;10.880;2023-01-26T01:39:01;99154;;;0.17;82.75
4326;BME280;58429;49.826;10.880;2023-01-26T01:40:01;99154;;;0.18;82.75
4326;BME280;58429;49.826;10.880;2023-01-26T01:41:01;99153;;;0.16;82.77
4326;BME280;58429;49.826;10.880;2023-01-26T01:42:01;99153;;;0.19;82.79
4326;BME280;58429;49.826;10.880;2023-01-26T01:43:01;99154;;;0.18;82.82
4326;BME280;58429;49.826;10.880;2023-01-26T01:44:18;99149;;;0.15;82.84
4326;BME280;58429;49.826;10.880;2023-01-26T01:46:01;99149;;;0.15;82.85
4326;BME280;58429;49.826;10.880;2023-01-26T01:46:06;99155;;;0.18;82.9
4326;BME280;58429;49.826;10.880;2023-01-26T01:47:01;99150;;;0.13;82.79
4326;BME280;58429;49.826;10.880;2023-01-26T01:48:02;99157;;;0.16;82.82
4326;BME280;58429;49.826;10.880;2023-01-26T01:49:02;99154;;;0.15;82.86
4326;BME280;58429;49.826;10.880;2023-01-26T01:50:01;99152;;;0.15;82.87
4326;BME280;58429;49.826;10.880;2023-01-26T01:51:02;99154;;;0.21;82.89
4326;BME280;58429;49.826;10.880;2023-01-26T01:52:03;99156;;;0.22;82.85
4326;BME280;58429;49.826;10.880;2023-01-26T01:53:01;99157;;;0.16;82.86
4326;BME280;58429;49.826;10.880;2023-01-26T01:54:02;99153;;;0.17;82.81
4326;BME280;58429;49.826;10.880;2023-01-26T01:55:02;99150;;;0.15;82.67
4326;BME280;58429;49.826;10.880;2023-01-26T01:56:02;99146;;;0.12;82.46
4326;BME280;58429;49.826;10.880;2023-01-26T01:57:02;99148;;;0.1;82.44
4326;BME280;58429;49.826;10.880;2023-01-26T01:58:01;99144;;;0.09;82.46
4326;BME280;58429;49.826;10.880;2023-01-26T01:59:01;99140;;;0.1;82.5
4326;BME280;58429;49.826;10.880;2023-01-26T02:00:03;99142;;;0.1;82.51
4326;BME280;58429;49.826;10.880;2023-01-26T02:01:01;99148;;;0.1;82.6
4326;BME280;58429;49.826;10.880;2023-01-26T02:02:01;99148;;;0.09;82.61
4326;BME280;58429;49.826;10.880;2023-01-26T02:03:02;99145;;;0.13;82.68
4326;BME280;58429;49.826;10.880;2023-01-26T02:04:02;99148;;;0.12;82.76
4326;BME280;58429;49.826;10.880;2023-01-26T02:05:03;99139;;;0.09;82.8
4326;BME280;58429;49.826;10.880;2023-01-26T02:06:02;99140;;;0.1;82.93
4326;BME280;58429;49.826;10.880;2023-01-26T02:07:01;99138;;;0.07;82.87
4326;BME280;58429;49.826;10.880;2023-01-26T02:08:01;99139;;;0.06;82.89
4326;BME280;58429;49.826;10.880;2023-01-26T02:09:01;99143;;;0.03;82.84
4326;BME280;58429;49.826;10.880;2023-01-26T02:10:01;99138;;;0.03;82.71
4326;BME280;58429;49.826;10.880;2023-01-26T02:11:03;99136;;;-0.01;82.66
4326;BME280;58429;49.826;10.880;2023-01-26T02:12:01;99136;;;-0.03;82.65
4326;BME280;58429;49.826;10.880;2023-01-26T02:13:01;99136;;;0.02;82.72
4326;BME280;58429;49.826;10.880;2023-01-26T02:14:01;99140;;;-0.02;82.63
4326;BME280;58429;49.826;10.880;2023-01-26T02:15:02;99136;;;-0.05;82.62
4326;BME280;58429;49.826;10.880;2023-01-26T02:16:01;99133;;;-0.03;82.62
4326;BME280;58429;49.826;10.880;2023-01-26T02:17:01;99129;;;-0.02;82.65
4326;BME280;58429;49.826;10.880;2023-01-26T02:18:01;99130;;;-0.03;82.68
4326;BME280;58429;49.826;10.880;2023-01-26T02:19:01;99132;;;-0.02;82.61
4326;BME280;58429;49.826;10.880;2023-01-26T02:20:03;99132;;;-0.06;82.55
4326;BME280;58429;49.826;10.880;2023-01-26T02:21:02;99133;;;-0.03;82.59
4326;BME280;58429;49.826;10.880;2023-01-26T02:22:03;99134;;;-0.1;82.62
4326;BME280;58429;49.826;10.880;2023-01-26T02:23:01;99130;;;-0.05;82.66
4326;BME280;58429;49.826;10.880;2023-01-26T02:24:04;99125;;;-0.09;82.74
4326;BME280;58429;49.826;10.880;2023-01-26T02:25:03;99123;;;-0.09;82.89
4326;BME280;58429;49.826;10.880;2023-01-26T02:26:06;99122;;;-0.12;82.86
4326;BME280;58429;49.826;10.880;2023-01-26T02:27:01;99120;;;-0.15;82.91
4326;BME280;58429;49.826;10.880;2023-01-26T02:28:01;99117;;;-0.13;82.96
4326;BME280;58429;49.826;10.880;2023-01-26T02:29:01;99118;;;-0.14;82.95
4326;BME280;58429;49.826;10.880;2023-01-26T02:30:01;99114;;;-0.13;82.96
4326;BME280;58429;49.826;10.880;2023-01-26T02:31:01;99103;;;-0.11;82.96
4326;BME280;58429;49.826;10.880;2023-01-26T02:32:01;99106;;;-0.11;83.04
4326;BME280;58429;49.826;10.880;2023-01-26T02:33:01;99110;;;-0.1;83.08
4326;BME280;58429;49.826;10.880;2023-01-26T02:34:01;99108;;;-0.1;83
4326;BME280;58429;49.826;10.880;2023-01-26T02:35:01;99103;;;-0.08;83
4326;BME280;58429;49.826;10.880;2023-01-26T02:36:01;99102;;;-0.05;82.98
4326;BME280;58429;49.826;10.880;2023-01-26T02:37:01;99100;;;-0.01;82.89
4326;BME280;58429;49.826;10.880;2023-01-26T02:38:01;99104;;;0.03;82.78
4326;BME280;58429;49.826;10.880;2023-01-26T02:39:11;99102;;;0.02;82.74
4326;BME280;58429;49.826;10.880;2023-01-26T02:40:02;99100;;;0.05;82.7
4326;BME280;58429;49.826;10.880;2023-01-26T02:41:02;99097;;;0.03;82.58
4326;BME280;58429;49.826;10.880;2023-01-26T02:42:01;99101;;;0.06;82.48
4326;BME280;58429;49.826;10.880;2023-01-26T02:43:01;99093;;;0.06;82.39
4326;BME280;58429;49.826;10.880;2023-01-26T02:44:01;99090;;;0.06;82.38
4326;BME280;58429;49.826;10.880;2023-01-26T02:45:01;99091;;;0.08;82.36
4326;BME280;58429;49.826;10.880;2023-01-26T02:46:01;99094;;;0.1;82.35
4326;BME280;58429;49.826;10.880;2023-01-26T02:47:08;99091;;;0.09;82.33
4326;BME280;58429;49.826;10.880;2023-01-26T02:48:01;99088;;;0.08;82.33
4326;BME280;58429;49.826;10.880;2023-01-26T02:49:01;99093;;;0.11;82.4
4326;BME280;58429;49.826;10.880;2023-01-26T02:50:01;99092;;;0.12;82.53
4326;BME280;58429;49.826;10.880;2023-01-26T02:51:01;99094;;;0.1;82.52
4326;BME280;58429;49.826;10.880;2023-01-26T02:52:02;99093;;;0.11;82.35
4326;BME280;58429;49.826;10.880;2023-01-26T02:53:02;99091;;;0.09;82.29
4326;BME280;58429;49.826;10.880;2023-01-26T02:54:01;99094;;;0.09;82.23
4326;BME280;58429;49.826;10.880;2023-01-26T02:55:01;99084;;;0.11;82.2
4326;BME280;58429;49.826;10.880;2023-01-26T02:56:01;99084;;;0.12;82.15
4326;BME280;58429;49.826;10.880;2023-01-26T02:57:01;99091;;;0.11;82.13
4326;BME280;58429;49.826;10.880;2023-01-26T02:58:02;99092;;;0.12;82.11
4326;BME280;58429;49.826;10.880;2023-01-26T02:59:01;99089;;;0.09;82.07
4326;BME280;58429;49.826;10.880;2023-01-26T03:00:01;99088;;;0.07;82.03
4326;BME280;58429;49.826;10.880;2023-01-26T03:01:01;99085;;;0.1;82.1
4326;BME280;58429;49.826;10.880;2023-01-26T03:02:01;99086;;;0.07;81.95
4326;BME280;58429;49.826;10.880;2023-01-26T03:03:02;99086;;;0.07;81.95
4326;BME280;58429;49.826;10.880;2023-01-26T03:04:01;99086;;;0.03;81.97
4326;BME280;58429;49.826;10.880;2023-01-26T03:05:01;99092;;;0.04;81.97
4326;BME280;58429;49.826;10.880;2023-01-26T03:06:01;99089;;;0.05;81.98
4326;BME280;58429;49.826;10.880;2023-01-26T03:07:01;99084;;;-0.02;81.96
4326;BME280;58429;49.826;10.880;2023-01-26T03:08:01;99081;;;0.03;82
4326;BME280;58429;49.826;10.880;2023-01-26T03:09:01;99085;;;0.01;82
4326;BME280;58429;49.826;10.880;2023-01-26T03:10:01;99087;;;0;82.02
4326;BME280;58429;49.826;10.880;2023-01-26T03:11:02;99083;;;0.02;81.99
4326;BME280;58429;49.826;10.880;2023-01-26T03:12:01;99073;;;0.01;82
4326;BME280;58429;49.826;10.880;2023-01-26T03:13:01;99077;;;0.01;82
4326;BME280;58429;49.826;10.880;2023-01-26T03:14:01;99077;;;0.01;81.99
4326;BME280;58429;49.826;10.880;2023-01-26T03:15:02;99077;;;0.05;82.07
4326;BME280;58429;49.826;10.880;2023-01-26T03:16:04;99075;;;0.08;82.1
4326;BME280;58429;49.826;10.880;2023-01-26T03:17:01;99074;;;0.06;82.02
4326;BME280;58429;49.826;10.880;2023-01-26T03:18:02;99075;;;0.07;81.99
4326;BME280;58429;49.826;10.880;2023-01-26T03:19:02;99082;;;0.06;82.03
4326;BME280;58429;49.826;10.880;2023-01-26T03:20:01;99077;;;0.04;82.03
4326;BME280;58429;49.826;10.880;2023-01-26T03:21:02;99079;;;0.08;82.1
4326;BME280;58429;49.826;10.880;2023-01-26T03:22:01;99083;;;0.09;82.11
4326;BME280;58429;49.826;10.880;2023-01-26T03:23:01;99084;;;0.11;82.02
4326;BME280;58429;49.826;10.880;2023-01-26T03:24:01;99080;;;0.13;82.01
4326;BME280;58429;49.826;10.880;2023-01-26T03:25:01;99078;;;0.13;81.99
4326;BME280;58429;49.826;10.880;2023-01-26T03:26:01;99077;;;0.12;81.98
4326;BME280;58429;49.826;10.880;2023-01-26T03:27:01;99076;;;0.19;82.01
4326;BME280;58429;49.826;10.880;2023-01-26T03:28:01;99084;;;0.17;82.03
4326;BME280;58429;49.826;10.880;2023-01-26T03:29:01;99080;;;0.19;82.03
4326;BME280;58429;49.826;10.880;2023-01-26T03:30:02;99079;;;0.19;82.06
4326;BME280;58429;49.826;10.880;2023-01-26T03:31:01;99077;;;0.19;82.05
4326;BME280;58429;49.826;10.880;2023-01-26T03:32:01;99071;;;0.2;81.99
4326;BME280;58429;49.826;10.880;2023-01-26T03:33:01;99072;;;0.21;81.96
4326;BME280;58429;49.826;10.880;2023-01-26T03:34:01;99077;;;0.22;81.92
4326;BME280;58429;49.826;10.880;2023-01-26T03:35:02;99075;;;0.24;81.95
4326;BME280;58429;49.826;10.880;2023-01-26T03:36:01;99069;;;0.19;81.93
4326;BME280;58429;49.826;10.880;2023-01-26T03:37:01;99073;;;0.24;81.97
4326;BME280;58429;49.826;10.880;2023-01-26T03:38:01;99071;;;0.24;81.99
4326;BME280;58429;49.826;10.880;2023-01-26T03:39:01;99065;;;0.22;81.97
4326;BME280;58429;49.826;10.880;2023-01-26T03:40:01;99064;;;0.23;81.97
4326;BME280;58429;49.826;10.880;2023-01-26T03:41:01;99065;;;0.22;81.96
4326;BME280;58429;49.826;10.880;2023-01-26T03:42:01;99066;;;0.22;82.01
4326;BME280;58429;49.826;10.880;2023-01-26T03:43:05;99067;;;0.24;82.06
4326;BME280;58429;49.826;10.880;2023-01-26T03:44:01;99064;;;0.23;82.09
4326;BME280;58429;49.826;10.880;2023-01-26T03:45:01;99066;;;0.24;82.09
4326;BME280;58429;49.826;10.880;2023-01-26T03:46:02;99061;;;0.27;82.07
4326;BME280;58429;49.826;10.880;2023-01-26T03:47:01;99072;;;0.23;81.99
4326;BME280;58429;49.826;10.880;2023-01-26T03:48:02;99071;;;0.21;81.97
4326;BME280;58429;49.826;10.880;2023-01-26T03:49:01;99075;;;0.21;81.97
4326;BME280;58429;49.826;10.880;2023-01-26T03:50:01;99073;;;0.25;81.96
4326;BME280;58429;49.826;10.880;2023-01-26T03:51:01;99069;;;0.23;81.92
4326;BME280;58429;49.826;10.880;2023-01-26T03:52:01;99072;;;0.21;81.8
4326;BME280;58429;49.826;10.880;2023-01-26T03:53:01;99073;;;0.23;81.81
4326;BME280;58429;49.826;10.880;2023-01-26T03:54:01;99076;;;0.23;81.81
4326;BME280;58429;49.826;10.880;2023-01-26T03:55:01;99065;;;0.24;81.84
4326;BME280;58429;49.826;10.880;2023-01-26T03:56:01;99065;;;0.26;81.95
4326;BME280;58429;49.826;10.880;2023-01-26T03:57:01;99071;;;0.24;82.01
4326;BME280;58429;49.826;10.880;2023-01-26T03:58:01;99068;;;0.24;82.03
4326;BME280;58429;49.826;10.880;2023-01-26T03:59:03;99073;;;0.23;82.03
4326;BME280;58429;49.826;10.880;2023-01-26T04:00:02;99077;;;0.23;82.02
4326;BME280;58429;49.826;10.880;2023-01-26T04:01:01;99074;;;0.24;81.99
4326;BME280;58429;49.826;10.880;2023-01-26T04:02:01;99080;;;0.24;82.04
4326;BME280;58429;49.826;10.880;2023-01-26T04:03:01;99076;;;0.26;82.04
4326;BME280;58429;49.826;10.880;2023-01-26T04:04:01;99071;;;0.24;82.05
4326;BME280;58429;49.826;10.880;2023-01-26T04:05:01;99078;;;0.26;82.06
4326;BME280;58429;49.826;10.880;2023-01-26T04:06:01;99077;;;0.25;82.06
4326;BME280;58429;49.826;10.880;2023-01-26T04:07:01;99075;;;0.28;82.08
4326;BME280;58429;49.826;10.880;2023-01-26T04:08:01;99078;;;0.26;82.1
4326;BME280;58429;49.826;10.880;2023-01-26T04:09:02;99075;;;0.27;82.12
4326;BME280;58429;49.826;10.880;2023-01-26T04:10:01;99073;;;0.28;82.13
4326;BME280;58429;49.826;10.880;2023-01-26T04:11:01;99071;;;0.26;82.09
4326;BME280;58429;49.826;10.880;2023-01-26T04:12:01;99069;;;0.27;82.1
4326;BME280;58429;49.826;10.880;2023-01-26T04:13:01;99075;;;0.27;82.09
4326;BME280;58429;49.826;10.880;2023-01-26T04:14:01;99066;;;0.27;82.11
4326;BME280;58429;49.826;10.880;2023-01-26T04:15:01;99078;;;0.29;82.08
4326;BME280;58429;49.826;10.880;2023-01-26T04:16:01;99069;;;0.31;82.09
4326;BME280;58429;49.826;10.880;2023-01-26T04:17:02;99067;;;0.29;82.06
4326;BME280;58429;49.826;10.880;2023-01-26T04:18:04;99070;;;0.32;82.09
4326;BME280;58429;49.826;10.880;2023-01-26T04:19:01;99064;;;0.29;82.08
4326;BME280;58429;49.826;10.880;2023-01-26T04:20:01;99069;;;0.31;82.13
4326;BME280;58429;49.826;10.880;2023-01-26T04:21:02;99069;;;0.33;82.16
4326;BME280;58429;49.826;10.880;2023-01-26T04:22:01;99069;;;0.31;82.11
4326;BME280;58429;49.826;10.880;2023-01-26T04:23:01;99069;;;0.28;82.06
4326;BME280;58429;49.826;10.880;2023-01-26T04:24:02;99071;;;0.28;81.99
4326;BME280;58429;49.826;10.880;2023-01-26T04:25:01;99066;;;0.26;81.97
4326;BME280;58429;49.826;10.880;2023-01-26T04:26:01;99062;;;0.26;81.99
4326;BME280;58429;49.826;10.880;2023-01-26T04:27:01;99063;;;0.26;82.01
4326;BME280;58429;49.826;10.880;2023-01-26T04:28:01;99060;;;0.25;82.02
4326;BME280;58429;49.826;10.880;2023-01-26T04:29:02;99062;;;0.24;82.02
4326;BME280;58429;49.826;10.880;2023-01-26T04:30:01;99058;;;0.22;82.03
4326;BME280;58429;49.826;10.880;2023-01-26T04:31:01;99069;;;0.15;82.01
4326;BME280;58429;49.826;10.880;2023-01-26T04:32:01;99062;;;0.15;81.98
4326;BME280;58429;49.826;10.880;2023-01-26T04:33:01;99060;;;0.1;82.05
4326;BME280;58429;49.826;10.880;2023-01-26T04:34:02;99059;;;0.12;82.11
4326;BME280;58429;49.826;10.880;2023-01-26T04:35:01;99056;;;0.13;82.11
4326;BME280;58429;49.826;10.880;2023-01-26T04:36:02;99054;;;0.13;82.07
4326;BME280;58429;49.826;10.880;2023-01-26T04:37:01;99053;;;0.11;82.1
4326;BME280;58429;49.826;10.880;2023-01-26T04:38:02;99045;;;0.16;82.13
4326;BME280;58429;49.826;10.880;2023-01-26T04:39:01;99057;;;0.11;82.15
4326;BME280;58429;49.826;10.880;2023-01-26T04:40:01;99056;;;0.1;82.21
4326;BME280;58429;49.826;10.880;2023-01-26T04:41:01;99054;;;0.08;82.2
4326;BME280;58429;49.826;10.880;2023-01-26T04:42:01;99054;;;0.07;82.14
4326;BME280;58429;49.826;10.880;2023-01-26T04:43:01;99051;;;0.08;82.1
4326;BME280;58429;49.826;10.880;2023-01-26T04:44:01;99057;;;0.09;82.06
4326;BME280;58429;49.826;10.880;2023-01-26T04:45:01;99051;;;0.07;82.03
4326;BME280;58429;49.826;10.880;2023-01-26T04:46:02;99052;;;0.09;82
4326;BME280;58429;49.826;10.880;2023-01-26T04:47:01;99051;;;0.04;81.96
4326;BME280;58429;49.826;10.880;2023-01-26T04:48:01;99055;;;0.07;82
4326;BME280;58429;49.826;10.880;2023-01-26T04:49:01;99057;;;0.09;82.03
4326;BME280;58429;49.826;10.880;2023-01-26T04:50:02;99057;;;0.11;82.09
4326;BME280;58429;49.826;10.880;2023-01-26T04:51:02;99053;;;0.09;82.07
4326;BME280;58429;49.826;10.880;2023-01-26T04:52:01;99056;;;0.09;82.05
4326;BME280;58429;49.826;10.880;2023-01-26T04:53:01;99055;;;0.1;82.09
4326;BME280;58429;49.826;10.880;2023-01-26T04:54:01;99054;;;0.08;82.08
4326;BME280;58429;49.826;10.880;2023-01-26T04:55:01;99056;;;0.1;82.03
4326;BME280;58429;49.826;10.880;2023-01-26T04:56:01;99056;;;0.12;81.98
4326;BME280;58429;49.826;10.880;2023-01-26T04:57:01;99056;;;0.09;82
4326;BME280;58429;49.826;10.880;2023-01-26T04:58:01;99057;;;0.07;81.98
4326;BME280;58429;49.826;10.880;2023-01-26T04:59:02;99056;;;0.11;82.03
4326;BME280;58429;49.826;10.880;2023-01-26T05:00:02;99060;;;0.07;82.01
4326;BME280;58429;49.826;10.880;2023-01-26T05:01:01;99062;;;0.1;81.98
4326;BME280;58429;49.826;10.880;2023-01-26T05:02:01;99061;;;0.09;81.94
4326;BME280;58429;49.826;10.880;2023-01-26T05:03:01;99058;;;0.07;81.93
4326;BME280;58429;49.826;10.880;2023-01-26T05:04:02;99053;;;0.06;81.87
4326;BME280;58429;49.826;10.880;2023-01-26T05:05:01;99051;;;0.1;81.81
4326;BME280;58429;49.826;10.880;2023-01-26T05:06:01;99057;;;0.06;81.7
4326;BME280;58429;49.826;10.880;2023-01-26T05:07:01;99053;;;0.1;81.69
4326;BME280;58429;49.826;10.880;2023-01-26T05:08:01;99047;;;0.1;81.7
4326;BME280;58429;49.826;10.880;2023-01-26T05:09:01;99057;;;0.11;81.68
4326;BME280;58429;49.826;10.880;2023-01-26T05:10:02;99053;;;0.12;81.67
4326;BME280;58429;49.826;10.880;2023-01-26T05:11:01;99052;;;0.13;81.63
4326;BME280;58429;49.826;10.880;2023-01-26T05:12:01;99052;;;0.11;81.61
4326;BME280;58429;49.826;10.880;2023-01-26T05:13:01;99053;;;0.11;81.66
4326;BME280;58429;49.826;10.880;2023-01-26T05:14:01;99054;;;0.14;81.72
4326;BME280;58429;49.826;10.880;2023-01-26T05:15:01;99054;;;0.16;81.74
4326;BME280;58429;49.826;10.880;2023-01-26T05:16:01;99048;;;0.16;81.78
4326;BME280;58429;49.826;10.880;2023-01-26T05:17:01;99056;;;0.17;81.84
4326;BME280;58429;49.826;10.880;2023-01-26T05:18:02;99058;;;0.15;81.82
4326;BME280;58429;49.826;10.880;2023-01-26T05:19:01;99050;;;0.16;81.75
4326;BME280;58429;49.826;10.880;2023-01-26T05:20:01;99059;;;0.16;81.76
4326;BME280;58429;49.826;10.880;2023-01-26T05:21:01;99059;;;0.18;81.67
4326;BME280;58429;49.826;10.880;2023-01-26T05:22:01;99052;;;0.12;81.6
4326;BME280;58429;49.826;10.880;2023-01-26T05:23:01;99057;;;0.08;81.48
4326;BME280;58429;49.826;10.880;2023-01-26T05:24:01;99054;;;0.08;81.51
4326;BME280;58429;49.826;10.880;2023-01-26T05:25:02;99050;;;0.06;81.54
4326;BME280;58429;49.826;10.880;2023-01-26T05:26:01;99057;;;0.1;81.55
4326;BME280;58429;49.826;10.880;2023-01-26T05:27:01;99059;;;0.07;81.53
4326;BME280;58429;49.826;10.880;2023-01-26T05:28:01;99052;;;0.11;81.5
4326;BME280;58429;49.826;10.880;2023-01-26T05:29:01;99062;;;0.06;81.39
4326;BME280;58429;49.826;10.880;2023-01-26T05:30:01;99060;;;0.03;81.46
4326;BME280;58429;49.826;10.880;2023-01-26T05:31:01;99061;;;0.04;81.58
4326;BME280;58429;49.826;10.880;2023-01-26T05:32:01;99059;;;-0.02;81.61
4326;BME280;58429;49.826;10.880;2023-01-26T05:33:02;99057;;;0.01;81.67
4326;BME280;58429;49.826;10.880;2023-01-26T05:34:02;99061;;;0.04;81.73
4326;BME280;58429;49.826;10.880;2023-01-26T05:35:02;99065;;;0.01;81.76
4326;BME280;58429;49.826;10.880;2023-01-26T05:36:02;99063;;;0.03;81.85